Time;durP1;ratioP1;P1;durP2;ratioP2;P2;SDS_P1;SDS_P2;PMS_P1;PMS_P2;Temp;Humidity;BMP_temperature;BMP_pressure;BME280_temperature;BME280_humidity;BME280_pressure;Samples;Min_cycle;Max_cycle;Signal;HPM_P1;HPM_P2
2021/01/26 00:01:22;;;;;;;6.53;2.85;;;;;;;6.82;60.52;100969.69;4912179;28;113301;-70
2021/01/26 00:03:49;;;;;;;5.85;2.85;;;;;;;6.79;60.46;100969.78;4922955;28;123819;-71
2021/01/26 00:06:16;;;;;;;8.27;2.80;;;;;;;6.76;60.47;100965.47;4927728;28;124391;-70
2021/01/26 00:08:42;;;;;;;7.78;3.03;;;;;;;6.75;60.69;100969.00;4928977;28;114451;-70
2021/01/26 00:11:09;;;;;;;7.75;2.75;;;;;;;6.74;60.63;100977.81;4924857;28;114198;-70
2021/01/26 00:13:36;;;;;;;8.90;2.33;;;;;;;6.73;60.58;100986.59;4928370;28;124150;-70
2021/01/26 00:16:04;;;;;;;10.75;3.10;;;;;;;6.72;60.73;100990.13;4927643;28;123289;-70
2021/01/26 00:18:31;;;;;;;8.02;3.05;;;;;;;6.71;61.07;100977.88;4928141;28;115048;-70
2021/01/26 00:20:58;;;;;;;6.68;3.05;;;;;;;6.69;61.21;100969.16;4930516;28;114839;-70
2021/01/26 00:23:25;;;;;;;8.68;3.75;;;;;;;6.68;61.12;100975.31;4916819;28;123736;-71
2021/01/26 00:25:52;;;;;;;11.02;3.97;;;;;;;6.68;61.11;100971.81;4911070;28;122932;-70
2021/01/26 00:28:19;;;;;;;11.68;3.53;;;;;;;6.66;61.28;100974.50;4913241;28;114277;-70
2021/01/26 00:30:46;;;;;;;9.73;3.88;;;;;;;6.67;61.20;100986.75;4911536;28;114070;-70
2021/01/26 00:33:19;;;;;;;9.13;3.33;;;;;;;6.68;61.24;100988.47;4924964;28;124602;-71
2021/01/26 00:35:47;;;;;;;8.50;3.28;;;;;;;6.70;61.26;100980.53;4919632;28;124877;-70
2021/01/26 00:38:21;;;;;;;10.63;2.83;;;;;;;6.70;61.62;100978.78;4927333;28;114276;-71
2021/01/26 00:40:53;;;;;;;9.50;2.78;;;;;;;6.71;61.48;100972.63;4923904;28;113631;-71
2021/01/26 00:43:20;;;;;;;5.88;3.10;;;;;;;6.72;61.40;100974.31;4911243;28;122555;-70
2021/01/26 00:45:46;;;;;;;8.63;3.13;;;;;;;6.73;61.31;100970.81;4913593;28;123647;-70
2021/01/26 00:48:15;;;;;;;10.63;3.25;;;;;;;6.74;61.38;100969.03;4913415;28;112689;-70
2021/01/26 00:50:41;;;;;;;13.38;3.30;;;;;;;6.74;61.70;100983.06;4910902;28;114377;-70
2021/01/26 00:53:08;;;;;;;7.40;4.00;;;;;;;6.76;61.68;100980.38;4927743;28;124470;-70
2021/01/26 00:55:41;;;;;;;12.05;3.53;;;;;;;6.77;61.43;100977.69;4912054;28;123409;-70
2021/01/26 00:58:09;;;;;;;6.57;3.88;;;;;;;6.77;61.81;100982.97;4906314;28;113697;-70
2021/01/26 01:00:38;;;;;;;12.43;3.70;;;;;;;6.78;61.72;100979.44;4914943;28;113665;-70
2021/01/26 01:03:13;;;;;;;10.05;3.75;;;;;;;6.79;61.55;100975.88;4918896;28;123278;-70
2021/01/26 01:05:39;;;;;;;11.80;3.92;;;;;;;6.82;61.69;100975.81;4925872;28;123357;-70
2021/01/26 01:08:06;;;;;;;11.75;4.20;;;;;;;6.85;61.96;100989.81;4924781;28;115420;-70
2021/01/26 01:10:36;;;;;;;15.70;4.40;;;;;;;6.86;61.78;100989.75;4916937;28;114483;-70
2021/01/26 01:13:11;;;;;;;13.98;4.85;;;;;;;6.89;62.11;100991.44;4931135;28;124104;-70
2021/01/26 01:15:39;;;;;;;10.17;4.70;;;;;;;6.92;62.13;100996.63;4925447;28;124378;-71
2021/01/26 01:18:07;;;;;;;13.75;4.05;;;;;;;6.94;61.92;100994.81;4908628;28;113723;-71
2021/01/26 01:20:34;;;;;;;11.07;4.55;;;;;;;6.97;62.02;101002.66;4915547;28;114604;-70
2021/01/26 01:23:01;;;;;;;13.55;5.10;;;;;;;6.98;62.07;100996.44;4914424;28;125141;-70
2021/01/26 01:25:28;;;;;;;14.15;4.50;;;;;;;7.01;62.26;101006.91;4922969;28;123961;-69
2021/01/26 01:27:55;;;;;;;15.15;4.38;;;;;;;7.03;62.16;100999.84;4924625;28;114322;-69
2021/01/26 01:30:27;;;;;;;14.13;4.50;;;;;;;7.05;62.08;101008.56;4931657;28;113953;-69
2021/01/26 01:32:54;;;;;;;12.82;4.38;;;;;;;7.06;62.15;101005.00;4921553;28;123985;-70
2021/01/26 01:35:21;;;;;;;16.08;4.13;;;;;;;7.08;62.35;101008.44;4902438;28;122820;-70
2021/01/26 01:37:48;;;;;;;13.50;4.47;;;;;;;7.12;62.35;101010.13;4917527;28;113563;-70
2021/01/26 01:40:35;;;;;;;13.65;4.03;;;;;;;7.14;62.09;101034.63;4929740;28;114206;-70
2021/01/26 01:43:03;;;;;;;11.30;4.80;;;;;;;7.19;62.30;101039.75;4915429;28;123785;-70
2021/01/26 01:45:29;;;;;;;18.55;4.30;;;;;;;7.22;62.47;101027.38;4928307;28;124678;-70
2021/01/26 01:48:02;;;;;;;18.50;5.07;;;;;;;7.27;62.39;101026.38;4917077;28;114852;-70
2021/01/26 01:50:47;;;;;;;17.25;3.97;;;;;;;7.29;62.23;101027.19;4915693;28;114077;-70
2021/01/26 01:53:37;;;;;;;18.83;4.22;;;;;;;7.30;62.14;101039.47;4912950;28;124202;-70
2021/01/26 01:56:08;;;;;;;15.93;3.72;;;;;;;7.33;61.97;101028.84;4920807;28;123936;-70
2021/01/26 01:58:41;;;;;;;12.45;3.60;;;;;;;7.33;62.15;101034.13;4915579;28;114798;-70
2021/01/26 02:01:12;;;;;;;14.13;4.03;;;;;;;7.32;62.03;101033.25;4902394;28;114321;-70
2021/01/26 02:03:43;;;;;;;13.52;3.90;;;;;;;7.32;61.99;101032.38;4913762;28;123267;-70
2021/01/26 02:06:11;;;;;;;17.30;4.20;;;;;;;7.33;61.77;101044.66;4920919;28;124215;-70
2021/01/26 02:08:58;;;;;;;12.85;3.70;;;;;;;7.33;61.80;101045.53;4915390;28;114617;-70
2021/01/26 02:11:25;;;;;;;9.77;3.58;;;;;;;7.32;61.91;101050.81;4915037;28;114272;-70
2021/01/26 02:13:52;;;;;;;8.88;3.00;;;;;;;7.32;61.86;101053.47;4928940;28;123950;-70
2021/01/26 02:16:26;;;;;;;8.52;3.00;;;;;;;7.28;62.18;101051.81;4914597;28;123590;-70
2021/01/26 02:18:53;;;;;;;4.30;1.98;;;;;;;7.29;61.70;101053.53;4910987;28;114835;-70
2021/01/26 02:21:36;;;;;;;6.90;2.58;;;;;;;7.26;62.13;101064.19;4925408;28;114630;-70
2021/01/26 02:24:28;;;;;;;8.05;2.25;;;;;;;7.21;61.80;101062.53;4921419;28;124416;-70
2021/01/26 02:27:37;;;;;;;11.68;2.50;;;;;;;7.19;62.12;101074.84;4925638;28;124162;-70
2021/01/26 02:30:27;;;;;;;6.55;2.40;;;;;;;7.16;61.76;101079.38;4931943;28;114064;-70
2021/01/26 02:33:26;;;;;;;5.78;2.60;;;;;;;7.13;61.73;101069.75;4927270;28;115316;-70
2021/01/26 02:36:14;;;;;;;7.70;2.63;;;;;;;7.09;62.07;101081.28;4923973;28;123524;-70
2021/01/26 02:39:26;;;;;;;6.25;2.80;;;;;;;7.07;61.95;101067.31;4931410;28;124422;-70
2021/01/26 02:42:08;;;;;;;6.45;2.83;;;;;;;7.07;61.71;101069.94;4928419;28;114965;-69
2021/01/26 02:44:50;;;;;;;8.02;3.10;;;;;;;7.06;62.17;101078.72;4915709;28;113384;-69
2021/01/26 02:47:31;;;;;;;9.75;3.17;;;;;;;7.07;62.41;101095.41;4913381;28;123931;-70
2021/01/26 02:50:08;;;;;;;10.32;3.35;;;;;;;7.09;62.37;101094.47;4932309;28;124010;-70
2021/01/26 02:52:42;;;;;;;14.18;3.80;;;;;;;7.12;62.03;101110.19;4928942;28;115306;-70
2021/01/26 02:55:15;;;;;;;13.18;3.42;;;;;;;7.15;62.19;101104.81;4919083;28;114736;-70
2021/01/26 02:57:58;;;;;;;14.05;3.83;;;;;;;7.16;62.22;101117.09;4921610;28;124567;-70
2021/01/26 03:00:28;;;;;;;12.10;3.45;;;;;;;7.17;62.58;101113.56;4930526;28;124224;-71
2021/01/26 03:03:19;;;;;;;16.90;3.75;;;;;;;7.19;62.61;101122.28;4927985;28;114269;-71
2021/01/26 03:05:56;;;;;;;12.55;4.00;;;;;;;7.21;62.04;101115.22;4912676;28;113661;-71
2021/01/26 03:08:31;;;;;;;14.45;4.00;;;;;;;7.21;62.36;101104.69;4925017;28;124967;-70
2021/01/26 03:11:05;;;;;;;15.77;3.80;;;;;;;7.24;62.43;101113.41;4920938;28;123572;-70
2021/01/26 03:13:36;;;;;;;12.15;3.42;;;;;;;7.24;62.02;101108.13;4923913;28;114267;-70
2021/01/26 03:16:08;;;;;;;12.18;3.80;;;;;;;7.26;62.56;101106.31;4926271;28;114266;-70
2021/01/26 03:18:47;;;;;;;22.40;3.85;;;;;;;7.26;62.49;101106.31;4924780;28;123959;-70
2021/01/26 03:21:18;;;;;;;13.80;3.47;;;;;;;7.29;62.42;101112.38;4922196;28;123910;-70
2021/01/26 03:24:23;;;;;;;16.23;4.47;;;;;;;7.30;62.25;101114.09;4930526;28;115052;-70
2021/01/26 03:26:49;;;;;;;12.98;3.83;;;;;;;7.33;62.48;101118.44;4818903;29;113889;-70
2021/01/26 03:29:22;;;;;;;13.85;3.60;;;;;;;7.35;62.29;101132.44;4907368;28;124399;-70
2021/01/26 03:31:53;;;;;;;14.10;3.42;;;;;;;7.37;62.63;101130.63;4905110;28;122823;-70
2021/01/26 03:34:21;;;;;;;11.32;2.83;;;;;;;7.37;62.39;101130.63;4898818;28;113537;-70
2021/01/26 03:36:48;;;;;;;8.27;2.38;;;;;;;7.37;62.45;101123.56;4927938;28;113105;-70
2021/01/26 03:39:16;;;;;;;11.15;2.30;;;;;;;7.38;62.52;101149.03;4920121;28;124120;-70
2021/01/26 03:41:43;;;;;;;9.98;2.20;;;;;;;7.39;62.34;101149.88;4917013;28;124904;-70
2021/01/26 03:44:11;;;;;;;15.43;2.97;;;;;;;7.38;62.49;101146.38;4924425;28;114396;-69
2021/01/26 03:46:53;;;;;;;6.70;2.10;;;;;;;7.39;62.39;101144.59;4897152;28;114091;-71
2021/01/26 03:49:36;;;;;;;9.30;1.95;;;;;;;7.40;62.33;101146.31;4920586;28;124019;-70
2021/01/26 03:52:21;;;;;;;9.20;2.53;;;;;;;7.37;61.90;101151.69;4899404;28;122868;-70
2021/01/26 03:54:58;;;;;;;10.87;2.83;;;;;;;7.32;61.75;101143.03;4924943;28;114348;-71
2021/01/26 03:57:50;;;;;;;9.68;2.63;;;;;;;7.28;62.07;101157.19;4925623;28;114707;-71
2021/01/26 04:00:36;;;;;;;13.88;3.38;;;;;;;7.23;61.87;101146.78;4919248;28;123335;-71
2021/01/26 04:05:57;;;;;;;13.45;3.00;;;;;;;7.16;61.92;101153.97;4984746;28;97056;-71
2021/01/26 04:08:48;;;;;;;14.77;3.40;;;;;;;7.12;62.17;101157.59;4969797;28;114402;-71
2021/01/26 04:11:21;;;;;;;12.70;3.38;;;;;;;7.11;62.26;101161.13;4951070;28;123774;-71
2021/01/26 04:14:16;;;;;;;13.70;2.70;;;;;;;7.10;62.13;101156.78;4934848;28;124580;-71
2021/01/26 04:17:08;;;;;;;13.65;2.90;;;;;;;7.13;62.58;101184.81;4929165;28;112805;-70
2021/01/26 04:19:40;;;;;;;13.15;2.60;;;;;;;7.16;62.69;101177.69;4958111;28;113795;-70
2021/01/26 04:22:09;;;;;;;10.60;2.47;;;;;;;7.18;62.92;101183.78;4963220;28;124074;-70
2021/01/26 04:24:36;;;;;;;8.75;2.53;;;;;;;7.22;62.48;101180.16;4965059;28;123614;-70
2021/01/26 04:27:13;;;;;;;11.85;2.63;;;;;;;7.26;62.85;101182.72;4945016;28;114659;-71
2021/01/26 04:29:39;;;;;;;7.72;2.30;;;;;;;7.30;62.82;101193.13;4947423;28;114350;-70
2021/01/26 04:32:07;;;;;;;10.73;2.83;;;;;;;7.33;62.57;101197.47;4944719;28;123408;-70
2021/01/26 04:34:34;;;;;;;12.80;2.63;;;;;;;7.36;63.18;101200.00;4943287;28;122323;-71
2021/01/26 04:37:01;;;;;;;11.20;2.60;;;;;;;7.39;62.56;101197.31;4949526;28;114867;-70
2021/01/26 04:39:27;;;;;;;12.43;2.75;;;;;;;7.42;62.61;101197.22;4954063;28;114674;-70
2021/01/26 04:42:06;;;;;;;9.80;2.60;;;;;;;7.41;62.33;101190.22;4944465;28;123306;-70
2021/01/26 04:44:54;;;;;;;11.60;2.90;;;;;;;7.42;62.31;101205.13;4947205;28;124516;-71
2021/01/26 04:47:25;;;;;;;14.93;3.03;;;;;;;7.41;62.36;101200.75;4954655;28;114223;-70
2021/01/26 04:50:02;;;;;;;16.33;3.15;;;;;;;7.39;62.18;101207.84;4945039;28;114794;-71
2021/01/26 04:53:07;;;;;;;11.77;3.58;;;;;;;7.36;62.36;101198.22;4972048;28;124165;-71
2021/01/26 04:55:49;;;;;;;12.52;3.40;;;;;;;7.35;62.15;101207.06;4872618;28;121834;-71
2021/01/26 04:58:31;;;;;;;15.40;3.20;;;;;;;7.33;62.13;101208.88;4958619;28;114929;-71
2021/01/26 05:01:13;;;;;;;19.90;3.40;;;;;;;7.32;62.38;101207.13;4965434;28;113818;-71
2021/01/26 05:03:58;;;;;;;10.93;3.33;;;;;;;7.33;62.39;101208.00;4956229;28;124359;-70
2021/01/26 05:06:35;;;;;;;11.03;3.33;;;;;;;7.34;62.43;101209.72;4931816;28;123918;-70
2021/01/26 05:09:07;;;;;;;15.73;2.85;;;;;;;7.34;62.69;101225.53;4945566;28;113091;-70
2021/01/26 05:11:37;;;;;;;14.15;2.92;;;;;;;7.35;62.68;101216.75;4932908;28;115597;-70
2021/01/26 05:14:13;;;;;;;15.63;3.10;;;;;;;7.35;62.56;101216.75;4934417;28;125919;-70
2021/01/26 05:16:51;;;;;;;14.15;2.85;;;;;;;7.36;62.20;101218.44;4944768;28;122855;-70
2021/01/26 05:19:23;;;;;;;17.00;3.05;;;;;;;7.35;62.16;101224.66;4955448;28;114480;-70
2021/01/26 05:21:52;;;;;;;10.77;2.97;;;;;;;7.37;62.30;101241.28;4960548;28;114009;-70
2021/01/26 05:24:26;;;;;;;10.00;2.72;;;;;;;7.37;62.51;101251.81;4944817;28;123189;-70
2021/01/26 05:26:53;;;;;;;19.67;3.28;;;;;;;7.38;62.61;101264.06;4950121;28;123090;-69
2021/01/26 05:29:19;;;;;;;17.13;2.95;;;;;;;7.40;62.41;101272.81;4962538;28;114766;-70
2021/01/26 05:31:55;;;;;;;12.35;3.72;;;;;;;7.40;62.81;101267.53;4983062;22;113985;-70
2021/01/26 05:34:22;;;;;;;12.10;2.67;;;;;;;7.41;62.54;101275.41;4968839;28;123234;-71
2021/01/26 05:36:49;;;;;;;7.63;1.80;;;;;;;7.39;62.03;101268.44;4969684;28;124612;-71
2021/01/26 05:39:24;;;;;;;5.97;1.63;;;;;;;7.33;61.74;101272.09;4964275;28;114551;-71
2021/01/26 05:41:50;;;;;;;7.80;1.58;;;;;;;7.27;61.74;101281.91;4938323;28;114202;-70
2021/01/26 05:44:18;;;;;;;4.75;1.42;;;;;;;7.20;62.07;101276.81;4961484;28;123870;-71
2021/01/26 05:46:46;;;;;;;5.80;1.40;;;;;;;7.18;62.14;101294.41;4933809;28;123038;-71
2021/01/26 05:49:36;;;;;;;7.97;1.83;;;;;;;7.14;62.04;101282.22;4964920;28;114639;-71
2021/01/26 05:52:07;;;;;;;8.25;2.40;;;;;;;7.14;62.16;101276.06;4962211;28;114349;-71
2021/01/26 05:54:37;;;;;;;16.15;2.78;;;;;;;7.14;62.20;101266.41;4962257;28;124039;-70
2021/01/26 05:57:04;;;;;;;10.35;3.05;;;;;;;7.15;62.27;101273.41;4962285;28;123081;-70
2021/01/26 05:59:36;;;;;;;17.98;3.13;;;;;;;7.18;62.74;101264.59;4963769;28;114579;-70
2021/01/26 06:02:14;;;;;;;13.63;3.70;;;;;;;7.20;62.63;101271.53;4921554;28;113100;-71
2021/01/26 06:04:42;;;;;;;17.40;3.50;;;;;;;7.21;62.80;101268.00;4959498;28;124091;-71
2021/01/26 06:07:16;;;;;;;15.55;3.63;;;;;;;7.23;62.71;101270.59;4961693;28;124130;-70
2021/01/26 06:09:43;;;;;;;12.27;3.80;;;;;;;7.26;62.54;101283.69;4961944;28;114092;-71
2021/01/26 06:12:18;;;;;;;12.02;3.30;;;;;;;7.27;62.54;101282.81;4950257;28;113981;-71
2021/01/26 06:14:54;;;;;;;11.50;3.07;;;;;;;7.28;62.85;101288.94;4961199;28;124153;-71
2021/01/26 06:17:23;;;;;;;11.13;2.88;;;;;;;7.31;62.66;101294.09;4951306;28;124540;-71
2021/01/26 06:20:14;;;;;;;18.33;3.13;;;;;;;7.29;62.59;101291.53;4961364;28;115655;-71
2021/01/26 06:22:41;;;;;;;11.73;2.78;;;;;;;7.32;62.77;101301.97;4961369;28;114845;-71
2021/01/26 06:25:19;;;;;;;16.38;3.08;;;;;;;7.34;62.91;101299.31;4931428;28;123819;-70
2021/01/26 06:27:51;;;;;;;11.98;3.45;;;;;;;7.36;62.65;101313.31;4960927;28;124616;-71
2021/01/26 06:30:29;;;;;;;16.77;3.30;;;;;;;7.36;62.62;101318.59;4959374;28;113575;-71
2021/01/26 06:33:15;;;;;;;12.18;3.65;;;;;;;7.37;62.74;101315.06;4934752;28;112902;-71
2021/01/26 06:36:21;;;;;;;13.57;3.10;;;;;;;7.37;62.55;101320.34;4960543;28;124607;-71
2021/01/26 06:39:12;;;;;;;10.40;2.67;;;;;;;7.38;62.59;101322.03;4959531;28;124322;-71
2021/01/26 06:42:10;;;;;;;14.20;3.45;;;;;;;7.36;62.72;101337.03;4941369;28;114658;-71
2021/01/26 06:45:01;;;;;;;13.25;3.25;;;;;;;7.37;62.88;101344.03;4957185;28;114415;-70
2021/01/26 06:47:50;;;;;;;9.55;2.85;;;;;;;7.36;62.52;101344.94;4958094;28;124605;-71
2021/01/26 06:50:45;;;;;;;13.68;3.03;;;;;;;7.36;62.63;101339.66;4960989;28;123111;-71
2021/01/26 06:53:19;;;;;;;13.63;2.83;;;;;;;7.37;62.94;101341.41;4958533;28;114239;-70
2021/01/26 06:56:10;;;;;;;13.23;2.50;;;;;;;7.38;62.58;101353.66;4959858;28;114106;-71
2021/01/26 06:59:02;;;;;;;13.75;2.30;;;;;;;7.38;62.58;101364.22;4960372;28;124318;-70
2021/01/26 07:01:40;;;;;;;11.18;2.78;;;;;;;7.38;62.88;101369.47;4957568;28;123808;-71
2021/01/26 07:04:35;;;;;;;14.65;2.70;;;;;;;7.38;62.58;101374.75;4958248;28;114899;-71
2021/01/26 07:07:33;;;;;;;10.15;2.42;;;;;;;7.38;62.74;101380.00;4959265;28;114122;-71
2021/01/26 07:10:08;;;;;;;10.90;2.60;;;;;;;7.39;62.54;101392.31;4958742;28;123945;-71
2021/01/26 07:12:47;;;;;;;;;;;;;;;7.38;62.84;101390.56;4956273;28;123842;-71
2021/01/26 07:15:21;;;;;;;10.38;2.50;;;;;;;7.40;62.41;101388.75;4958374;28;115123;-71
2021/01/26 07:18:23;;;;;;;19.03;2.90;;;;;;;7.40;62.75;101391.38;4947284;28;114760;-71
2021/01/26 07:21:08;;;;;;;16.25;3.00;;;;;;;7.41;62.85;101408.94;4940963;28;123957;-71
2021/01/26 07:24:01;;;;;;;18.48;3.20;;;;;;;7.41;62.96;101412.44;4957921;28;124240;-70
2021/01/26 07:26:52;;;;;;;15.65;3.05;;;;;;;7.44;62.84;101411.53;4958887;28;114010;-70
2021/01/26 07:29:48;;;;;;;12.57;2.83;;;;;;;7.46;62.69;101420.25;4956919;28;114223;-70
2021/01/26 07:32:38;;;;;;;18.73;3.27;;;;;;;7.46;62.69;101430.78;4925932;28;622070;-71
2021/01/26 07:35:22;;;;;;;11.00;2.92;;;;;;;7.45;63.16;101431.69;4959085;28;123728;-71
2021/01/26 07:38:05;;;;;;;15.23;3.03;;;;;;;7.48;62.66;101434.25;4961343;28;114906;-71
2021/01/26 07:41:07;;;;;;;17.27;3.40;;;;;;;7.51;63.08;101444.72;4963637;28;114547;-70
2021/01/26 07:43:56;;;;;;;13.48;3.10;;;;;;;7.53;62.94;101444.69;4961744;28;124342;-70
2021/01/26 07:46:36;;;;;;;13.80;2.97;;;;;;;7.54;62.60;101444.66;4958729;28;123871;-71
2021/01/26 07:49:23;;;;;;;14.00;3.05;;;;;;;7.54;62.75;101449.06;4963008;28;115190;-71
2021/01/26 07:51:56;;;;;;;10.80;3.33;;;;;;;7.55;62.95;101462.22;4961295;28;114102;-71
2021/01/26 07:54:38;;;;;;;13.18;3.10;;;;;;;7.54;62.89;101465.75;4944369;28;123157;-71
2021/01/26 07:57:05;;;;;;;11.88;3.00;;;;;;;7.53;62.77;101469.25;4961728;28;124168;-71
2021/01/26 07:59:36;;;;;;;13.60;2.92;;;;;;;7.53;62.50;101466.63;4951981;28;113366;-70
2021/01/26 08:02:18;;;;;;;13.02;2.85;;;;;;;7.51;62.99;101476.34;4960627;28;114038;-70
2021/01/26 08:04:45;;;;;;;16.20;3.20;;;;;;;7.52;62.85;101478.09;4946855;28;123935;-71
2021/01/26 08:07:42;;;;;;;10.45;3.40;;;;;;;7.50;62.78;101479.91;4969139;28;123983;-71
2021/01/26 08:10:19;;;;;;;13.15;3.13;;;;;;;7.54;62.92;101485.97;4943620;28;114230;-71
2021/01/26 08:12:48;;;;;;;15.50;3.50;;;;;;;7.55;62.85;101485.94;4961887;28;115669;-71
2021/01/26 08:15:29;;;;;;;14.40;3.75;;;;;;;7.54;62.49;101497.38;4953864;28;123957;-71
2021/01/26 08:17:57;;;;;;;16.38;3.20;;;;;;;7.55;62.61;101493.84;4959968;28;123674;-71
2021/01/26 08:20:24;;;;;;;13.05;3.15;;;;;;;7.56;62.59;101495.56;4951395;28;112495;-71
2021/01/26 08:23:04;;;;;;;13.63;3.33;;;;;;;7.56;62.96;101503.47;4962364;28;114346;-71
2021/01/26 08:25:33;;;;;;;7.43;2.65;;;;;;;7.58;62.71;101504.31;4960466;28;124264;-71
2021/01/26 08:28:02;;;;;;;10.40;2.70;;;;;;;7.58;62.69;101509.59;4963221;28;123810;-71
2021/01/26 08:30:49;;;;;;;15.27;3.10;;;;;;;7.59;63.04;101506.06;4961453;28;114069;-71
2021/01/26 08:33:22;;;;;;;12.38;2.78;;;;;;;7.60;62.67;101513.03;4960601;28;114572;-71
2021/01/26 08:36:09;;;;;;;10.15;2.55;;;;;;;7.60;62.93;101518.31;4950296;28;124470;-71
2021/01/26 08:38:58;;;;;;;10.40;2.60;;;;;;;7.63;63.09;101516.50;4964097;28;123967;-71
2021/01/26 08:41:32;;;;;;;11.77;2.30;;;;;;;7.65;62.89;101519.97;4936836;28;113367;-71
2021/01/26 08:43:59;;;;;;;8.13;1.93;;;;;;;7.67;62.84;101523.47;4954323;28;114009;-71
2021/01/26 08:46:38;;;;;;;7.63;1.90;;;;;;;7.68;62.77;101530.47;4963506;28;124489;-71
2021/01/26 08:49:19;;;;;;;12.15;2.05;;;;;;;7.70;62.74;101533.94;4962478;28;124435;-71
2021/01/26 08:51:46;;;;;;;5.32;1.77;;;;;;;7.72;62.98;101537.41;4966013;28;114902;-71
2021/01/26 08:54:36;;;;;;;5.75;1.65;;;;;;;7.73;62.85;101544.44;4938107;28;113048;-71
2021/01/26 08:57:42;;;;;;;9.27;1.67;;;;;;;7.76;62.96;101544.34;4960091;28;124272;-71
2021/01/26 09:00:25;;;;;;;7.38;1.65;;;;;;;7.79;62.72;101549.56;4955975;28;124220;-71
2021/01/26 09:02:52;;;;;;;7.25;1.40;;;;;;;7.81;62.77;101555.66;4960700;28;115064;-71
2021/01/26 09:05:45;;;;;;;6.65;1.70;;;;;;;7.82;62.94;101553.88;4958126;28;114766;-71
2021/01/26 09:08:38;;;;;;;7.18;1.95;;;;;;;7.85;62.74;101565.25;4961726;28;124299;-71
2021/01/26 09:11:07;;;;;;;7.85;1.55;;;;;;;7.87;62.57;101568.72;4964631;28;124316;-71
2021/01/26 09:13:34;;;;;;;8.65;1.60;;;;;;;7.90;63.01;101568.66;4952034;28;114667;-71
2021/01/26 09:16:17;;;;;;;6.75;1.60;;;;;;;7.91;62.52;101575.69;4936584;28;113014;-71
2021/01/26 09:18:52;;;;;;;4.60;1.52;;;;;;;7.94;62.67;101574.72;4949861;28;123284;-71
2021/01/26 09:21:19;;;;;;;6.38;1.23;;;;;;;7.95;62.63;101577.34;4950078;28;122968;-72
2021/01/26 09:23:47;;;;;;;8.95;2.30;;;;;;;7.97;62.83;101580.81;4963656;28;114097;-71
2021/01/26 09:26:15;;;;;;;7.28;1.70;;;;;;;8.01;62.36;101591.31;4963197;28;114074;-70
2021/01/26 09:28:45;;;;;;;9.60;1.70;;;;;;;8.04;62.73;101592.06;4961274;28;124907;-71
2021/01/26 09:31:14;;;;;;;9.13;1.75;;;;;;;8.06;62.63;101594.69;4944684;28;124478;-71
2021/01/26 09:33:41;;;;;;;8.63;1.75;;;;;;;8.09;62.54;101603.41;4960639;28;114348;-71
2021/01/26 09:36:10;;;;;;;7.82;1.50;;;;;;;8.12;62.86;101615.69;4953747;28;114137;-72
2021/01/26 09:39:09;;;;;;;5.70;1.30;;;;;;;8.14;62.36;101613.88;4964619;28;124799;-71
2021/01/26 09:41:37;;;;;;;5.63;1.20;;;;;;;8.16;62.59;101622.63;4961171;28;124030;-71
2021/01/26 09:44:18;;;;;;;3.33;1.30;;;;;;;8.17;62.82;101626.97;4950885;28;113845;-71
2021/01/26 09:46:51;;;;;;;8.38;1.58;;;;;;;8.19;62.26;101622.53;4962204;28;114306;-71
2021/01/26 09:49:23;;;;;;;7.70;1.52;;;;;;;8.22;62.43;101622.47;4956036;28;123635;-71
2021/01/26 09:52:00;;;;;;;6.47;1.50;;;;;;;8.24;62.34;101630.34;4964032;28;124208;-70
2021/01/26 09:54:32;;;;;;;6.03;1.35;;;;;;;8.28;62.15;101632.00;4960249;28;115467;-71
2021/01/26 09:57:00;;;;;;;7.63;1.73;;;;;;;8.30;62.17;101636.34;4961713;28;114778;-71
2021/01/26 09:59:30;;;;;;;6.90;1.40;;;;;;;8.32;62.44;101642.44;4963612;28;123866;-71
2021/01/26 10:01:59;;;;;;;8.35;1.83;;;;;;;8.33;62.09;101646.84;4962377;28;123857;-71
2021/01/26 10:04:26;;;;;;;7.82;1.80;;;;;;;8.35;62.29;101645.03;4944637;28;113361;-72
2021/01/26 10:07:04;;;;;;;8.68;2.00;;;;;;;8.38;62.37;101650.25;4950257;28;113811;-71
2021/01/26 10:09:34;;;;;;;6.28;2.10;;;;;;;8.43;62.33;101662.50;4950023;28;124632;-71
2021/01/26 10:12:26;;;;;;;8.82;2.20;;;;;;;8.44;62.19;101664.22;4943285;28;123893;-71
2021/01/26 10:15:30;;;;;;;8.52;2.38;;;;;;;8.46;62.43;101662.44;4970145;28;114312;-71
2021/01/26 10:18:17;;;;;;;8.15;2.42;;;;;;;8.49;62.35;101662.34;4947479;28;114218;-71
2021/01/26 10:20:44;;;;;;;8.73;2.60;;;;;;;8.52;62.37;101667.56;4962381;28;122196;-72
2021/01/26 10:23:34;;;;;;;9.23;3.33;;;;;;;8.54;62.38;101671.03;4960349;28;124194;-72
2021/01/26 10:26:10;;;;;;;13.77;3.22;;;;;;;8.58;62.57;101673.56;4960678;28;114585;-72
2021/01/26 10:29:12;;;;;;;12.85;3.00;;;;;;;8.63;62.41;101676.13;4961896;28;113640;-72
2021/01/26 10:31:51;;;;;;;10.95;3.25;;;;;;;8.65;62.59;101679.59;4959440;28;123830;-72
2021/01/26 10:34:36;;;;;;;8.20;3.25;;;;;;;8.66;62.31;101670.75;4960741;28;123672;-71
2021/01/26 10:37:29;;;;;;;8.82;3.20;;;;;;;8.70;62.35;101680.34;4941371;28;114600;-72
2021/01/26 10:40:11;;;;;;;13.38;2.95;;;;;;;8.73;62.48;101677.63;4962788;28;114755;-71
2021/01/26 10:42:40;;;;;;;10.05;2.78;;;;;;;8.78;62.40;101680.16;4959904;28;124978;-72
2021/01/26 10:45:08;;;;;;;7.05;2.67;;;;;;;8.81;62.38;101679.22;4959771;28;124765;-72
2021/01/26 10:47:38;;;;;;;10.70;2.83;;;;;;;8.85;62.51;101675.59;4963015;28;114799;-71
2021/01/26 10:50:05;;;;;;;8.77;2.70;;;;;;;8.89;62.26;101671.97;4957826;28;115090;-72
2021/01/26 10:52:40;;;;;;;9.60;2.80;;;;;;;8.93;62.43;101671.00;4964092;28;123740;-72
2021/01/26 10:55:10;;;;;;;10.63;3.22;;;;;;;8.96;62.13;101662.97;4960649;28;124286;-72
2021/01/26 10:57:39;;;;;;;7.53;2.35;;;;;;;9.00;62.22;101664.63;4963039;28;113243;-71
2021/01/26 11:00:08;;;;;;;8.00;2.92;;;;;;;9.05;61.97;101668.03;4950970;28;113711;-72
2021/01/26 11:02:35;;;;;;;8.32;2.38;;;;;;;9.10;62.05;101676.72;4959561;28;124484;-71
2021/01/26 11:05:08;;;;;;;6.32;2.25;;;;;;;9.12;61.90;101674.91;4958907;28;124040;-71
2021/01/26 11:07:35;;;;;;;9.80;2.60;;;;;;;9.16;61.98;101671.28;4934780;28;113211;-71
2021/01/26 11:10:04;;;;;;;9.70;2.75;;;;;;;9.20;61.90;101676.50;4955642;28;113691;-71
2021/01/26 11:12:31;;;;;;;10.68;2.47;;;;;;;9.25;61.99;101685.13;4958155;28;124018;-71
2021/01/26 11:14:58;;;;;;;8.50;2.72;;;;;;;9.29;61.74;101686.81;4968848;28;124495;-72
2021/01/26 11:17:25;;;;;;;13.60;2.78;;;;;;;9.34;61.74;101692.84;4966860;28;113486;-71
2021/01/26 11:19:52;;;;;;;9.43;2.30;;;;;;;9.36;61.72;101693.66;4963185;28;114733;-73
2021/01/26 11:22:19;;;;;;;11.02;2.85;;;;;;;9.40;61.30;101690.06;4969290;28;124068;-71
2021/01/26 11:24:45;;;;;;;10.02;2.90;;;;;;;9.43;61.52;101695.25;4970201;28;123564;-72
2021/01/26 11:27:13;;;;;;;9.40;3.05;;;;;;;9.45;61.40;101682.84;4951778;28;113646;-71
2021/01/26 11:29:40;;;;;;;6.40;2.92;;;;;;;9.48;61.46;101687.19;4960411;28;114024;-71
2021/01/26 11:32:06;;;;;;;11.43;3.33;;;;;;;9.52;61.19;101684.41;4959990;28;124416;-71
2021/01/26 11:34:33;;;;;;;9.35;2.65;;;;;;;9.54;61.26;101687.03;4997520;22;123718;-72
2021/01/26 11:37:00;;;;;;;9.10;2.78;;;;;;;9.57;61.46;101686.06;4972379;28;114410;-72
2021/01/26 11:39:26;;;;;;;13.70;3.05;;;;;;;9.60;61.26;101686.00;4991131;28;114893;-71
2021/01/26 11:41:53;;;;;;;8.95;2.60;;;;;;;9.61;61.04;101682.47;4954356;28;122816;-72
2021/01/26 11:44:19;;;;;;;7.40;3.15;;;;;;;9.64;60.79;101687.63;4960553;28;124020;-71
2021/01/26 11:46:46;;;;;;;11.00;3.15;;;;;;;9.64;61.10;101687.63;4981618;28;115072;-72
2021/01/26 11:49:13;;;;;;;12.05;3.22;;;;;;;9.65;60.79;101689.38;4999663;28;114242;-72
2021/01/26 11:51:39;;;;;;;9.82;3.35;;;;;;;9.64;60.91;101677.91;5008815;28;123879;-72
2021/01/26 11:54:06;;;;;;;9.18;3.00;;;;;;;9.67;61.10;101687.56;5002194;28;124264;-72
2021/01/26 11:56:32;;;;;;;9.82;3.03;;;;;;;9.68;60.84;101690.19;4985125;28;115261;-72
2021/01/26 11:58:59;;;;;;;8.50;2.95;;;;;;;9.70;60.82;101682.16;4981326;28;114010;-71
2021/01/26 12:01:26;;;;;;;8.88;2.80;;;;;;;9.69;60.23;101686.59;4962521;28;124165;-71
2021/01/26 12:03:53;;;;;;;10.07;3.00;;;;;;;9.69;60.49;101675.16;4975124;28;123934;-71